sensor_id;sensor_type;location;lat;lon;timestamp;temperature;humidity
5731;DHT22;2890;51.950;7.668;2022-07-15T06:07:18;19.60;68.50
5731;DHT22;2890;51.950;7.668;2022-07-15T06:09:46;19.60;68.20
5731;DHT22;2890;51.950;7.668;2022-07-15T06:12:16;19.60;68.40
5731;DHT22;2890;51.950;7.668;2022-07-15T06:14:43;19.80;68.20
5731;DHT22;2890;51.950;7.668;2022-07-15T06:17:09;20.00;67.10
5731;DHT22;2890;51.950;7.668;2022-07-15T06:22:03;20.50;64.40
5731;DHT22;2890;51.950;7.668;2022-07-15T06:24:31;20.70;63.70
5731;DHT22;2890;51.950;7.668;2022-07-15T06:26:59;20.90;63.30
5731;DHT22;2890;51.950;7.668;2022-07-15T06:29:26;20.80;62.10
5731;DHT22;2890;51.950;7.668;2022-07-15T06:31:53;20.80;62.00
5731;DHT22;2890;51.950;7.668;2022-07-15T06:34:20;20.90;62.20
5731;DHT22;2890;51.950;7.668;2022-07-15T06:36:46;21.20;61.60
5731;DHT22;2890;51.950;7.668;2022-07-15T06:39:13;21.80;59.90
5731;DHT22;2890;51.950;7.668;2022-07-15T06:41:40;22.40;54.00
5731;DHT22;2890;51.950;7.668;2022-07-15T06:44:08;22.80;50.20
5731;DHT22;2890;51.950;7.668;2022-07-15T06:46:35;23.10;46.10
5731;DHT22;2890;51.950;7.668;2022-07-15T06:49:02;23.40;42.40
5731;DHT22;2890;51.950;7.668;2022-07-15T06:51:28;23.60;40.30
5731;DHT22;2890;51.950;7.668;2022-07-15T06:53:55;24.20;35.40
5731;DHT22;2890;51.950;7.668;2022-07-15T06:56:22;24.10;34.30
5731;DHT22;2890;51.950;7.668;2022-07-15T06:58:49;24.70;29.90
5731;DHT22;2890;51.950;7.668;2022-07-15T07:01:17;24.80;27.60
5731;DHT22;2890;51.950;7.668;2022-07-15T07:03:44;24.90;28.40
5731;DHT22;2890;51.950;7.668;2022-07-15T07:06:11;25.50;25.00
5731;DHT22;2890;51.950;7.668;2022-07-15T07:08:38;25.90;21.70
5731;DHT22;2890;51.950;7.668;2022-07-15T07:11:05;26.00;20.70
5731;DHT22;2890;51.950;7.668;2022-07-15T07:13:32;25.90;20.50
5731;DHT22;2890;51.950;7.668;2022-07-15T07:15:58;26.20;19.30
5731;DHT22;2890;51.950;7.668;2022-07-15T07:18:27;26.60;17.80
5731;DHT22;2890;51.950;7.668;2022-07-15T07:20:54;27.20;13.60
5731;DHT22;2890;51.950;7.668;2022-07-15T07:23:22;27.10;13.20
5731;DHT22;2890;51.950;7.668;2022-07-15T07:25:51;27.00;11.90
5731;DHT22;2890;51.950;7.668;2022-07-15T07:28:18;28.10;8.40
5731;DHT22;2890;51.950;7.668;2022-07-15T07:30:45;28.20;5.70
5731;DHT22;2890;51.950;7.668;2022-07-15T07:33:14;28.40;3.00
5731;DHT22;2890;51.950;7.668;2022-07-15T07:35:43;29.30;1.00
5731;DHT22;2890;51.950;7.668;2022-07-15T07:38:10;30.40;1.00
5731;DHT22;2890;51.950;7.668;2022-07-15T07:40:37;30.70;1.00
5731;DHT22;2890;51.950;7.668;2022-07-15T07:43:04;31.50;1.00
5731;DHT22;2890;51.950;7.668;2022-07-15T07:45:31;30.50;1.00
5731;DHT22;2890;51.950;7.668;2022-07-15T07:47:58;29.80;1.00
5731;DHT22;2890;51.950;7.668;2022-07-15T07:50:25;30.40;1.00
5731;DHT22;2890;51.950;7.668;2022-07-15T07:52:53;31.70;1.00
5731;DHT22;2890;51.950;7.668;2022-07-15T07:55:20;32.10;1.00
5731;DHT22;2890;51.950;7.668;2022-07-15T07:57:48;31.10;1.00
5731;DHT22;2890;51.950;7.668;2022-07-15T08:00:15;29.50;1.00
5731;DHT22;2890;51.950;7.668;2022-07-15T08:02:42;28.40;1.00
5731;DHT22;2890;51.950;7.668;2022-07-15T08:05:09;27.50;1.00
5731;DHT22;2890;51.950;7.668;2022-07-15T08:07:36;28.00;1.00
5731;DHT22;2890;51.950;7.668;2022-07-15T08:10:06;30.40;1.00
5731;DHT22;2890;51.950;7.668;2022-07-15T08:12:33;30.40;1.00
5731;DHT22;2890;51.950;7.668;2022-07-15T08:15:00;31.80;1.00
5731;DHT22;2890;51.950;7.668;2022-07-15T08:17:27;34.20;1.00
5731;DHT22;2890;51.950;7.668;2022-07-15T08:19:53;37.00;1.00
5731;DHT22;2890;51.950;7.668;2022-07-15T08:22:20;39.20;1.00
5731;DHT22;2890;51.950;7.668;2022-07-15T08:24:47;40.90;1.00
5731;DHT22;2890;51.950;7.668;2022-07-15T08:27:16;39.70;1.00
5731;DHT22;2890;51.950;7.668;2022-07-15T08:29:43;39.00;1.00
5731;DHT22;2890;51.950;7.668;2022-07-15T08:32:11;37.00;1.00
5731;DHT22;2890;51.950;7.668;2022-07-15T08:34:37;34.80;1.00
5731;DHT22;2890;51.950;7.668;2022-07-15T08:37:06;34.50;1.00
5731;DHT22;2890;51.950;7.668;2022-07-15T08:39:35;36.30;1.00
5731;DHT22;2890;51.950;7.668;2022-07-15T08:42:02;38.40;1.00
5731;DHT22;2890;51.950;7.668;2022-07-15T08:44:30;38.70;1.00
5731;DHT22;2890;51.950;7.668;2022-07-15T08:47:01;38.90;1.00
5731;DHT22;2890;51.950;7.668;2022-07-15T08:49:30;39.90;1.00
5731;DHT22;2890;51.950;7.668;2022-07-15T08:51:58;40.70;1.00
5731;DHT22;2890;51.950;7.668;2022-07-15T08:54:25;39.70;1.00
5731;DHT22;2890;51.950;7.668;2022-07-15T08:56:52;37.50;1.00
5731;DHT22;2890;51.950;7.668;2022-07-15T08:59:19;38.10;1.00
5731;DHT22;2890;51.950;7.668;2022-07-15T09:01:48;39.20;1.00
5731;DHT22;2890;51.950;7.668;2022-07-15T09:04:16;39.80;1.00
5731;DHT22;2890;51.950;7.668;2022-07-15T09:06:44;37.70;1.00
5731;DHT22;2890;51.950;7.668;2022-07-15T09:09:25;35.50;1.00
5731;DHT22;2890;51.950;7.668;2022-07-15T09:11:55;33.40;1.00
5731;DHT22;2890;51.950;7.668;2022-07-15T09:14:24;32.00;1.00
5731;DHT22;2890;51.950;7.668;2022-07-15T09:17:05;32.40;1.00
5731;DHT22;2890;51.950;7.668;2022-07-15T09:19:58;34.00;1.00
5731;DHT22;2890;51.950;7.668;2022-07-15T09:22:26;33.90;1.00
5731;DHT22;2890;51.950;7.668;2022-07-15T09:25:01;32.80;1.00
5731;DHT22;2890;51.950;7.668;2022-07-15T09:27:33;31.80;1.00
5731;DHT22;2890;51.950;7.668;2022-07-15T09:30:17;30.80;1.00
5731;DHT22;2890;51.950;7.668;2022-07-15T09:33:04;31.10;1.00
5731;DHT22;2890;51.950;7.668;2022-07-15T09:35:49;32.90;1.00
5731;DHT22;2890;51.950;7.668;2022-07-15T09:38:33;34.40;1.00
5731;DHT22;2890;51.950;7.668;2022-07-15T09:41:01;35.50;1.00
5731;DHT22;2890;51.950;7.668;2022-07-15T09:43:28;36.00;1.00
5731;DHT22;2890;51.950;7.668;2022-07-15T09:45:59;36.30;1.00
5731;DHT22;2890;51.950;7.668;2022-07-15T09:48:28;37.00;1.00
5731;DHT22;2890;51.950;7.668;2022-07-15T09:50:59;35.80;1.00
5731;DHT22;2890;51.950;7.668;2022-07-15T09:53:26;34.80;1.00
5731;DHT22;2890;51.950;7.668;2022-07-15T09:55:54;34.10;1.00
5731;DHT22;2890;51.950;7.668;2022-07-15T09:58:21;33.50;1.00
5731;DHT22;2890;51.950;7.668;2022-07-15T10:00:48;32.80;1.00
5731;DHT22;2890;51.950;7.668;2022-07-15T10:03:17;32.10;1.00
5731;DHT22;2890;51.950;7.668;2022-07-15T10:05:46;31.50;1.00
5731;DHT22;2890;51.950;7.668;2022-07-15T10:08:16;30.80;1.00
5731;DHT22;2890;51.950;7.668;2022-07-15T10:10:44;30.10;1.00
5731;DHT22;2890;51.950;7.668;2022-07-15T10:16:14;29.20;1.00
5731;DHT22;2890;51.950;7.668;2022-07-15T10:18:54;29.80;1.00
5731;DHT22;2890;51.950;7.668;2022-07-15T10:21:30;32.60;1.00
5731;DHT22;2890;51.950;7.668;2022-07-15T10:24:29;35.10;1.00
5731;DHT22;2890;51.950;7.668;2022-07-15T10:27:09;34.80;1.00
5731;DHT22;2890;51.950;7.668;2022-07-15T10:29:40;33.60;1.00
5731;DHT22;2890;51.950;7.668;2022-07-15T10:32:07;32.60;1.00
5731;DHT22;2890;51.950;7.668;2022-07-15T10:34:35;31.20;1.00
5731;DHT22;2890;51.950;7.668;2022-07-15T10:37:06;30.60;1.00
5731;DHT22;2890;51.950;7.668;2022-07-15T10:39:51;30.50;1.00
5731;DHT22;2890;51.950;7.668;2022-07-15T10:42:19;30.20;1.00
5731;DHT22;2890;51.950;7.668;2022-07-15T10:45:05;29.80;1.00
5731;DHT22;2890;51.950;7.668;2022-07-15T10:47:32;29.40;1.00
5731;DHT22;2890;51.950;7.668;2022-07-15T10:50:00;29.00;1.00
5731;DHT22;2890;51.950;7.668;2022-07-15T10:52:29;28.70;1.00
5731;DHT22;2890;51.950;7.668;2022-07-15T10:55:01;28.60;1.00
5731;DHT22;2890;51.950;7.668;2022-07-15T10:57:51;28.70;1.00
5731;DHT22;2890;51.950;7.668;2022-07-15T11:00:28;29.30;1.00
5731;DHT22;2890;51.950;7.668;2022-07-15T11:03:04;31.60;1.00
5731;DHT22;2890;51.950;7.668;2022-07-15T11:05:31;33.40;1.00
5731;DHT22;2890;51.950;7.668;2022-07-15T11:08:00;35.30;1.00
5731;DHT22;2890;51.950;7.668;2022-07-15T11:10:27;36.60;1.00
5731;DHT22;2890;51.950;7.668;2022-07-15T11:13:04;36.40;1.00
5731;DHT22;2890;51.950;7.668;2022-07-15T11:15:32;36.10;1.00
5731;DHT22;2890;51.950;7.668;2022-07-15T11:17:59;35.10;1.00
5731;DHT22;2890;51.950;7.668;2022-07-15T11:20:35;34.00;1.00
5731;DHT22;2890;51.950;7.668;2022-07-15T11:23:05;32.90;1.00
5731;DHT22;2890;51.950;7.668;2022-07-15T11:25:35;32.90;1.00
5731;DHT22;2890;51.950;7.668;2022-07-15T11:28:05;34.90;1.00
5731;DHT22;2890;51.950;7.668;2022-07-15T11:30:36;37.00;1.00
5731;DHT22;2890;51.950;7.668;2022-07-15T11:33:04;38.80;1.00
5731;DHT22;2890;51.950;7.668;2022-07-15T11:35:43;39.60;1.00
5731;DHT22;2890;51.950;7.668;2022-07-15T11:38:11;39.40;1.00
5731;DHT22;2890;51.950;7.668;2022-07-15T11:40:43;38.30;1.00
5731;DHT22;2890;51.950;7.668;2022-07-15T11:43:34;37.00;1.00
5731;DHT22;2890;51.950;7.668;2022-07-15T11:46:19;35.80;1.00
5731;DHT22;2890;51.950;7.668;2022-07-15T11:48:47;34.80;1.00
5731;DHT22;2890;51.950;7.668;2022-07-15T11:51:14;33.20;1.00
5731;DHT22;2890;51.950;7.668;2022-07-15T11:53:43;32.40;1.00
5731;DHT22;2890;51.950;7.668;2022-07-15T11:56:11;31.60;1.00
5731;DHT22;2890;51.950;7.668;2022-07-15T11:58:40;31.20;1.00
5731;DHT22;2890;51.950;7.668;2022-07-15T12:01:09;30.80;1.00
5731;DHT22;2890;51.950;7.668;2022-07-15T12:03:39;30.30;1.00
5731;DHT22;2890;51.950;7.668;2022-07-15T12:06:14;29.90;1.00
5731;DHT22;2890;51.950;7.668;2022-07-15T12:08:46;29.80;1.00
5731;DHT22;2890;51.950;7.668;2022-07-15T12:11:19;29.60;1.00
5731;DHT22;2890;51.950;7.668;2022-07-15T12:13:49;29.20;1.00
5731;DHT22;2890;51.950;7.668;2022-07-15T12:16:19;28.90;1.00
5731;DHT22;2890;51.950;7.668;2022-07-15T12:18:47;28.50;1.00
5731;DHT22;2890;51.950;7.668;2022-07-15T12:21:15;28.50;1.00
5731;DHT22;2890;51.950;7.668;2022-07-15T12:24:05;28.40;1.00
5731;DHT22;2890;51.950;7.668;2022-07-15T12:26:34;28.50;1.00
5731;DHT22;2890;51.950;7.668;2022-07-15T12:29:05;28.70;1.00
5731;DHT22;2890;51.950;7.668;2022-07-15T12:31:34;29.00;1.00
5731;DHT22;2890;51.950;7.668;2022-07-15T12:34:04;29.00;1.00
5731;DHT22;2890;51.950;7.668;2022-07-15T12:36:34;28.90;1.00
5731;DHT22;2890;51.950;7.668;2022-07-15T12:39:08;29.00;1.00
5731;DHT22;2890;51.950;7.668;2022-07-15T12:41:36;28.70;1.00
5731;DHT22;2890;51.950;7.668;2022-07-15T12:44:04;28.50;1.00
5731;DHT22;2890;51.950;7.668;2022-07-15T12:46:53;28.90;1.00
5731;DHT22;2890;51.950;7.668;2022-07-15T12:49:44;28.90;1.00
5731;DHT22;2890;51.950;7.668;2022-07-15T12:52:24;29.10;1.00
5731;DHT22;2890;51.950;7.668;2022-07-15T12:54:54;29.10;1.00
5731;DHT22;2890;51.950;7.668;2022-07-15T12:57:25;29.00;1.00
